Estación de Casa Rosada

Ultimos registro cada 15 minutos 65
Estación Fecha / Hora Temperatura Humedad Lluvia Velocidad Dirección Radiación Presion
65 Casa Rosada 05-09-2026 16:00 30,1 14 0 2,7 345 251 1004,5
64 Casa Rosada 05-09-2026 15:45 30,1 14 0 2,7 345 251 1004,5
63 Casa Rosada 05-09-2026 15:30 30,6 13 0 2,2 345 378 1004,6
62 Casa Rosada 05-09-2026 15:15 31,1 14 0 3,1 304 643 1004,7
61 Casa Rosada 05-09-2026 15:00 31,4 13 0 3,1 312 689 1004,8
60 Casa Rosada 05-09-2026 14:45 31,4 13 0 3,1 312 689 1004,8
59 Casa Rosada 05-09-2026 14:30 31,5 12 0 2,2 343 700 1005,1
58 Casa Rosada 05-09-2026 14:15 31,5 11 0 2,2 341 770 1005,4
57 Casa Rosada 05-09-2026 14:00 31,2 9 0 1,8 333 394 1005,9
56 Casa Rosada 05-09-2026 13:45 31,2 9 0 1,8 333 394 1005,9
55 Casa Rosada 05-09-2026 13:30 31 9 0 3,1 9 624 1006
54 Casa Rosada 05-09-2026 13:15 30,7 9 0 1,8 358 594 1006,3
53 Casa Rosada 05-09-2026 13:00 30,4 10 0 4,5 306 819 1006,6
52 Casa Rosada 05-09-2026 12:45 30,4 10 0 4,5 306 819 1006,6
51 Casa Rosada 05-09-2026 12:30 30,3 9 0 2,2 340 902 1007,1
50 Casa Rosada 05-09-2026 12:15 29,7 9 0 0,9 294 956 1007,3
49 Casa Rosada 05-09-2026 12:00 28,6 11 0 1,3 356 668 1008
48 Casa Rosada 05-09-2026 11:45 28,6 11 0 1,3 356 668 1008
47 Casa Rosada 05-09-2026 11:30 28,3 10 0 0,4 93 308 1008,4
46 Casa Rosada 05-09-2026 11:15 28,4 10 0 1,8 137 536 1008,9
45 Casa Rosada 05-09-2026 11:00 27,6 13 0 0,9 127 775 1009,4
44 Casa Rosada 05-09-2026 10:45 27,6 13 0 0,9 127 775 1009,4
43 Casa Rosada 05-09-2026 10:30 26,9 13 0 0,4 177 726 1009,5
42 Casa Rosada 05-09-2026 10:15 26,5 13 0 1,3 146 684 1010
41 Casa Rosada 05-09-2026 10:00 24,3 17 0 1,8 167 612 1011,2
40 Casa Rosada 05-09-2026 09:45 24,3 17 0 1,8 167 612 1011,2
39 Casa Rosada 05-09-2026 09:30 22,6 19 0 0,9 325 510 1011,8
38 Casa Rosada 05-09-2026 09:15 20,7 21 0 0 47 455 1012,4
37 Casa Rosada 05-09-2026 09:00 14,3 41 0 0 177 353 1012,8
36 Casa Rosada 05-09-2026 08:45 14,3 41 0 0 177 353 1012,8
35 Casa Rosada 05-09-2026 08:30 10,8 52 0 0 163 297 1012,7
34 Casa Rosada 05-09-2026 08:15 10,1 52 0 0 96 21 1012,5
33 Casa Rosada 05-09-2026 08:00 9,7 57 0 0,9 177 19 1012,6
32 Casa Rosada 05-09-2026 07:45 9,7 57 0 0,9 177 19 1012,6
31 Casa Rosada 05-09-2026 07:30 9,7 57 0 0,4 167 32 1012,4
30 Casa Rosada 05-09-2026 07:15 9,6 56 0 0 258 30 1012,4
29 Casa Rosada 05-09-2026 07:00 9,6 56 0 0 161 0 1012
28 Casa Rosada 05-09-2026 06:45 9,6 56 0 0 161 0 1012
27 Casa Rosada 05-09-2026 06:30 9,6 56 0 0,4 158 0 1011,8
26 Casa Rosada 05-09-2026 06:15 9,2 58 0 0,9 167 0 1011,6
25 Casa Rosada 05-09-2026 06:00 10,1 54 0 0 158 0 1011,5
24 Casa Rosada 05-09-2026 05:45 10,1 54 0 0 158 0 1011,5
23 Casa Rosada 05-09-2026 05:30 10,2 54 0 0,4 177 0 1011,4
22 Casa Rosada 05-09-2026 05:15 10,2 54 0 1,3 167 0 1011,3
21 Casa Rosada 05-09-2026 05:00 10,6 54 0 0,9 172 0 1011,1
20 Casa Rosada 05-09-2026 04:45 10,6 54 0 0,9 172 0 1011,1
19 Casa Rosada 05-09-2026 04:30 10,7 53 0 0,4 145 0 1011,1
18 Casa Rosada 05-09-2026 04:15 10,3 54 0 0,4 152 0 1011
17 Casa Rosada 05-09-2026 04:00 10,6 55 0 0,9 172 0 1011,2
16 Casa Rosada 05-09-2026 03:45 10,6 55 0 0,9 172 0 1011,2
15 Casa Rosada 05-09-2026 03:30 10,6 54 0 1,3 153 0 1011,2
14 Casa Rosada 05-09-2026 03:15 11,2 53 0 0,9 156 0 1011,3
13 Casa Rosada 05-09-2026 03:00 12,3 49 0 0,4 160 0 1011,3
12 Casa Rosada 05-09-2026 02:45 12,3 49 0 0,4 160 0 1011,3
11 Casa Rosada 05-09-2026 02:30 13,3 46 0 0,9 167 0 1011,4
10 Casa Rosada 05-09-2026 02:15 13,2 46 0 1,3 167 0 1011,5
9 Casa Rosada 05-09-2026 02:00 13,3 47 0 0 136 0 1011,7
8 Casa Rosada 05-09-2026 01:45 13,3 47 0 0 136 0 1011,7
7 Casa Rosada 05-09-2026 01:30 13,2 47 0 0,9 167 0 1011,8
6 Casa Rosada 05-09-2026 01:15 14,3 46 0 1,3 151 0 1011,7
5 Casa Rosada 05-09-2026 01:00 13,4 49 0 0,9 160 0 1011,6
4 Casa Rosada 05-09-2026 00:45 13,4 49 0 0,9 160 0 1011,6
3 Casa Rosada 05-09-2026 00:30 13,5 49 0 0,4 167 0 1011,7
2 Casa Rosada 05-09-2026 00:15 14 50 0 0,4 167 0 1011,8
1 Casa Rosada 05-09-2026 00:00 16,2 59 0 0,4 167 0 1011,7